METAR UND TAF INFORMATION
METAR FOR EDJA
ADDS - METARS form results

(1100 UTC 16 October 2018)
Data provider http://aviationweather.gov/metar/data/
 
METAR text: EDJA 161050Z VRB02KT CAVOK 19/06 Q1020
Conditions at: EDJA (MEMMINGEN ALLGAU, DE) observed 1050 UTC 16 October 2018
Temperature: 19.0°C (66°F)
Dewpoint: 6.0°C (43°F) [RH = 43%]
Pressure (altimeter): 30.12 inches Hg (1020.0 mb)
Winds: variable direction winds at 2 MPH (2 knots; 1.0 m/s)
Visibility: 6 or more miles (10+ km)
Ceiling: ceiling and visibility are OK
Clouds: unknown
Weather: no significant weather observed at this time

METAR text: EDJA 161020Z VRB02KT CAVOK 19/06 Q1020
Conditions at: EDJA (MEMMINGEN ALLGAU, DE) observed 1020 UTC 16 October 2018
Temperature: 19.0°C (66°F)
Dewpoint: 6.0°C (43°F) [RH = 43%]
Pressure (altimeter): 30.12 inches Hg (1020.0 mb)
Winds: variable direction winds at 2 MPH (2 knots; 1.0 m/s)
Visibility: 6 or more miles (10+ km)
Ceiling: ceiling and visibility are OK
Clouds: unknown
Weather: no significant weather observed at this time

Forecast for: EDJA (MEMMINGEN ALLGAU, DE)
Text: TAF EDJA 160800Z 1609/1618 05003KT CAVOK
Forecast period: 0900 to 1800 UTC 16 October 2018
Forecast type: FROM: standard forecast or significant change
Winds: from the NE (50 degrees) at 3 MPH (3 knots; 1.5 m/s)
Visibility: 6 or more miles 10+ km)
Ceiling: unknown
Clouds: missing
Weather: NSW  (no significant weather)

 FLUGHAFENKARTE

 RUNWAY INFORMATION
Runway 06 Runway length 9780 ft Runway width 98 ft
Runway elevation 2077 ft Runway displaced threshold 953 ft Runway heading 59
Runway 24 Runway length 9780 ft Runway width 98 ft
Runway elevation 2077 ft Runway displaced threshold 953 ft Runway heading 239

 AIRPORT FREQUENCIES
Type AFIS Name MUNCHEN IN Frequency 126.95 MHZ
Type INFO Name INFO Frequency 135.6 MHZ

 AIRPORT NEAR NAVIGATION AIDS



Version 3.0.1 EDV-Wallbrecher

Powered by EDV-Wallbrecher | Virtual Airlines Manager